Flight Track Log - Related Links

Times and Time Zones

All times are in EDT time to prevent confusion due to time zone crossing. See the N75ZM flight status page for this flight to view local times or setup timezone preferences in your user account.

Time Position Orientation Groundspeed Altitude Reporting Facility
EDT Latitude Longitude Course Direction KTS MPH feet Rate Location/Type
Wed 01:25:26 PM 36.1167 -86.6667 141° Southeast 120 138 1,100  Level Nashville TRACON
Wed 01:26:02 PM 36.1000 -86.6500 141° Southeast 119 137 1,400 727 Climbing Nashville TRACON
Wed 01:27:05 PM 36.0694 -86.6225 144° Southeast 119 137 2,300 768 Climbing Memphis Center
Wed 01:28:07 PM 36.0447 -86.5928 136° Southeast 119 137 3,000 528 Climbing Memphis Center
Wed 01:29:10 PM 36.0189 -86.5614 135° Southeast 124 143 3,400 432 Climbing Memphis Center
Wed 01:30:12 PM 35.9875 -86.5267 138° Southeast 143 165 3,900 435 Climbing Memphis Center
Wed 01:31:14 PM 35.9569 -86.4914 137° Southeast 144 166 4,300 435 Climbing Memphis Center
Wed 01:32:16 PM 35.9253 -86.4556 137° Southeast 146 168 4,800 484 Climbing Memphis Center
Wed 01:33:18 PM 35.8956 -86.4250 140° Southeast 146 168 5,300 532 Climbing Memphis Center
Wed 01:34:20 PM 35.8597 -86.3853 138° Southeast 146 168 5,900 484 Climbing Memphis Center
Wed 01:35:22 PM 35.8303 -86.3514 137° Southeast 145 167 6,300 435 Climbing Memphis Center
Wed 01:36:24 PM 35.7994 -86.3192 140° Southeast 145 167 6,800 290 Climbing Memphis Center
Wed 01:37:26 PM 35.7689 -86.2844 137° Southeast 145 167 6,900 48 Climbing Memphis Center
Wed 01:38:28 PM 35.7328 -86.2467 140° Southeast 161 185 6,900  Level Memphis Center
Wed 01:39:30 PM 35.6964 -86.2075 139° Southeast 168 193 6,900  Level Memphis Center
Wed 01:40:32 PM 35.6617 -86.1700 139° Southeast 168 193 6,900  Level Memphis Center
Wed 01:41:34 PM 35.6217 -86.1258 138° Southeast 167 192 6,900  Level Memphis Center
Wed 01:42:37 PM 35.5878 -86.0906 140° Southeast 166 191 6,900  Level Memphis Center
Wed 01:43:39 PM 35.5539 -86.0536 138° Southeast 165 190 6,900  Level Memphis Center
Wed 01:44:41 PM 35.5194 -86.0169 139° Southeast 165 190 6,900  Level Memphis Center
Wed 01:45:43 PM 35.4856 -85.9800 138° Southeast 165 190 6,900  Level Memphis Center
Wed 01:46:45 PM 35.4567 -85.9361 129° Southeast 165 190 6,900  Level Memphis Center
Wed 01:47:47 PM 35.4281 -85.8767 121° Southeast 165 190 6,900  Level Memphis Center
Wed 01:48:49 PM 35.4061 -85.8275 119° Southeast 165 190 6,900  Level Memphis Center
Wed 01:49:51 PM 35.3833 -85.7778 119° Southeast 166 191 6,900  Level Memphis Center
Wed 01:50:53 PM 35.3603 -85.7289 120° Southeast 166 191 6,900 48 Level Memphis Center
Wed 01:51:55 PM 35.3381 -85.6794 119° Southeast 166 191 7,000  Climbing Memphis Center
Wed 01:52:57 PM 35.3156 -85.6311 120° Southeast 166 191 6,900 -48 Descending Memphis Center
Wed 01:53:59 PM 35.2797 -85.5803 131° Southeast 166 191 6,900  Level Memphis Center
Wed 01:55:01 PM 35.2489 -85.5397 133° Southeast 166 191 6,900  Level Memphis Center
Wed 01:56:03 PM 35.2194 -85.4992 132° Southeast 165 190 6,900  Level Memphis Center
Wed 01:57:05 PM 35.1878 -85.4572 133° Southeast 165 190 6,900  Level Memphis Center
Wed 01:58:07 PM 35.1558 -85.4144 132° Southeast 166 191 6,900  Level Memphis Center
Wed 01:59:09 PM 35.1242 -85.3728 133° Southeast 167 192 6,900  Level Memphis Center
Wed 02:00:11 PM 35.0878 -85.3228 132° Southeast 167 192 6,900  Level Memphis Center
Wed 02:01:13 PM 35.0539 -85.2778 133° Southeast 167 192 6,900  Level Memphis Center
Wed 02:02:15 PM 35.0211 -85.2350 133° Southeast 167 192 6,900  Level Memphis Center
Wed 02:03:17 PM 34.9933 -85.1972 132° Southeast 167 192 6,900  Level Memphis Center
Wed 02:04:19 PM 34.9628 -85.1561 132° Southeast 167 192 6,900  Level Memphis Center
Wed 02:07:03 PM 34.8797 -85.0389 131° Southeast 169 194 6,900 27 Level Atlanta Center
Wed 02:08:03 PM 34.8381 -85.0358 177° South 163 188 7,000  Climbing Atlanta Center
Wed 02:09:03 PM 34.7939 -85.0506 195° South 157 181 6,900 -50 Descending Atlanta Center
Wed 02:10:03 PM 34.7481 -85.0653 195° South 162 186 6,900 50 Level Atlanta Center
Wed 02:11:03 PM 34.7019 -85.0747 190° South 162 186 7,000  Climbing Atlanta Center
Wed 02:12:03 PM 34.6581 -85.0817 187° South 162 186 6,900 -50 Descending Atlanta Center
Wed 02:13:03 PM 34.6122 -85.0711 169° South 162 186 6,900  Level Atlanta Center
Wed 02:14:03 PM 34.5728 -85.0403 147° Southeast 162 186 6,900  Level Atlanta Center
Wed 02:15:03 PM 34.5378 -85.0044 140° Southeast 162 186 6,900  Level Atlanta Center
Wed 02:16:03 PM 34.4981 -84.9814 154° Southeast 162 186 6,900  Level Atlanta Center
Wed 02:17:03 PM 34.4544 -84.9633 161° South 162 186 6,900  Level Atlanta Center
Wed 02:18:03 PM 34.4108 -84.9478 164° South 162 186 6,900 50 Level Atlanta Center
Wed 02:19:03 PM 34.3692 -84.9322 163° South 162 186 7,000 -200 Climbing Atlanta Center
Wed 02:20:03 PM 34.3275 -84.9217 168° South 162 186 6,500 -550 Descending Atlanta Center
Wed 02:21:03 PM 34.2900 -84.9036 158° South 162 186 5,900 -600 Descending Atlanta Center
Wed 02:22:03 PM 34.2547 -84.8731 144° Southeast 152 175 5,300 -500 Descending Atlanta Center
Wed 02:23:03 PM 34.2194 -84.8453 147° Southeast 152 175 4,900 -200 Descending Atlanta Center
Wed 02:24:03 PM 34.1947 -84.8097 130° Southeast 152 175 4,900  Level Atlanta Center
Wed 02:25:03 PM 34.1678 -84.7694 129° Southeast 147 169 4,900  Level Atlanta Center
Wed 02:26:03 PM 34.1408 -84.7289 129° Southeast 152 175 4,900 -200 Level Atlanta Center
Wed 02:27:03 PM 34.1139 -84.6836 126° Southeast 158 182 4,500 -450 Descending Atlanta Center
Wed 02:28:03 PM 34.0872 -84.6383 125° Southeast 163 188 4,000 -300 Descending Atlanta Center
Wed 02:29:03 PM 34.0603 -84.5956 127° Southeast 163 188 3,900 -34 Descending Atlanta Center
Wed 02:30:57 PM 34.0000 -84.5167 133° Southeast 161 185 3,900 34 Level Atlanta TRACON
Wed 02:31:57 PM 33.9833 -84.4667 112° Southeast 166 191 4,000 50 Climbing Atlanta TRACON
Wed 02:32:57 PM 33.9500 -84.4333 140° Southeast 167 192 4,000 -105 Level Atlanta TRACON
Wed 02:33:51 PM 33.9333 -84.3833 112° Southeast 172 198 3,800 -684 Descending Atlanta TRACON
Wed 02:34:51 PM 33.9000 -84.3333 129° Southeast 182 209 2,700 -850 Descending Atlanta TRACON
Wed 02:35:51 PM 33.8667 -84.3333 180° South 109 125 2,100 -550 Descending Atlanta TRACON
Wed 02:36:51 PM 33.8500 -84.3167 140° Southeast 105 121 1,600 -500 Descending Atlanta TRACON
Wed 02:38:00 PM 33.8667 -84.3000 126° Southeast  Level FlightAware Approximate
Wed 02:45:00 PM 33.8756 -84.3020 350° North  Level Estimated

Login

Don't have an account? Register now (free) for customized features, flight alerts, and more!